Time;durP1;ratioP1;P1;durP2;ratioP2;P2;SDS_P1;SDS_P2;PMS_P1;PMS_P2;Temp;Humidity;BMP_temperature;BMP_pressure;BME280_temperature;BME280_humidity;BME280_pressure;Samples;Min_cycle;Max_cycle;Signal;HPM_P1;HPM_P2
2022/09/26 00:01:42;;;;;;;2.85;2.40;;;;;;;14.01;93.90;95073.00;5050789;28;20193;-78
2022/09/26 00:04:13;;;;;;;2.47;2.28;;;;;;;14.00;94.16;95075.78;5049276;28;20288;-80
2022/09/26 00:06:39;;;;;;;4.65;2.30;;;;;;;14.00;94.23;95076.56;5047837;28;20228;-79
2022/09/26 00:09:06;;;;;;;3.05;2.30;;;;;;;13.99;93.64;95066.44;5034073;28;20190;-80
2022/09/26 00:11:34;;;;;;;2.80;2.60;;;;;;;14.00;93.92;95065.44;5033602;28;20195;-78
2022/09/26 00:14:03;;;;;;;3.03;2.72;;;;;;;13.96;94.02;95065.06;5034103;28;20209;-79
2022/09/26 00:16:29;;;;;;;3.10;2.90;;;;;;;14.00;93.88;95062.84;5033210;28;20248;-79
2022/09/26 00:18:57;;;;;;;2.75;2.55;;;;;;;13.98;94.25;95070.81;5034792;28;20198;-78
2022/09/26 00:21:25;;;;;;;3.33;2.70;;;;;;;14.01;93.91;95070.41;5033437;28;20204;-79
2022/09/26 00:23:53;;;;;;;3.42;2.70;;;;;;;14.06;93.72;95069.75;5034847;28;20728;-79
2022/09/26 00:26:21;;;;;;;3.38;2.83;;;;;;;14.10;93.42;95065.75;5033023;28;20364;-79
2022/09/26 00:28:49;;;;;;;2.80;2.60;;;;;;;14.06;93.77;95062.78;5034714;28;20256;-79
2022/09/26 00:31:18;;;;;;;2.90;2.70;;;;;;;14.08;93.75;95063.34;5047649;28;20715;-78
2022/09/26 00:33:45;;;;;;;3.00;2.75;;;;;;;14.08;93.56;95057.38;5046263;28;20209;-79
2022/09/26 00:36:12;;;;;;;3.42;2.67;;;;;;;14.10;93.18;95056.19;5047535;28;20221;-78
2022/09/26 00:38:40;;;;;;;2.92;2.72;;;;;;;14.09;93.12;95058.97;5046528;28;20202;-79
2022/09/26 00:41:07;;;;;;;3.28;2.97;;;;;;;14.08;93.15;95055.59;5047358;28;20783;-78
2022/09/26 00:43:35;;;;;;;3.53;2.97;;;;;;;14.09;93.26;95058.97;5047207;28;20201;-79
2022/09/26 00:46:21;;;;;;;3.00;2.80;;;;;;;14.07;93.30;95053.22;5046779;28;20225;-79
2022/09/26 00:48:51;;;;;;;2.92;2.72;;;;;;;14.10;93.04;95058.75;5042584;28;20202;-80
2022/09/26 00:51:18;;;;;;;3.00;2.30;;;;;;;14.12;92.94;95046.41;5033036;28;20198;-80
2022/09/26 00:53:48;;;;;;;2.85;2.65;;;;;;;14.09;92.82;95053.78;5034685;28;20202;-77
2022/09/26 00:56:18;;;;;;;2.95;2.75;;;;;;;14.07;93.00;95050.63;5032160;28;20458;-79
2022/09/26 00:58:50;;;;;;;2.80;2.60;;;;;;;14.05;93.11;95042.28;5035025;28;20209;-80
2022/09/26 01:01:19;;;;;;;3.03;2.83;;;;;;;14.05;93.56;95037.09;5033563;28;20653;-79
2022/09/26 01:03:48;;;;;;;3.35;3.05;;;;;;;14.04;93.49;95035.53;5034034;28;20206;-80
2022/09/26 01:06:15;;;;;;;3.10;2.83;;;;;;;14.00;93.39;95031.78;5032892;28;20283;-78
2022/09/26 01:08:47;;;;;;;2.95;2.75;;;;;;;14.00;93.16;95024.81;5034057;28;20205;-80
2022/09/26 01:11:14;;;;;;;4.35;3.25;;;;;;;14.03;93.19;95033.94;5027145;28;20256;-80
2022/09/26 01:13:42;;;;;;;2.95;2.75;;;;;;;14.04;93.23;95033.75;5036301;28;20226;-80
2022/09/26 01:16:09;;;;;;;3.30;3.00;;;;;;;14.06;92.60;95029.13;5036616;28;20632;-79
2022/09/26 01:18:37;;;;;;;4.10;3.40;;;;;;;14.03;93.13;95023.59;5037398;28;20252;-78
2022/09/26 01:21:14;;;;;;;3.28;2.97;;;;;;;14.05;93.30;95031.91;5037903;28;20197;-79
2022/09/26 01:24:01;;;;;;;2.90;2.70;;;;;;;13.99;92.77;95030.19;5037488;28;20228;-79
2022/09/26 01:26:57;;;;;;;3.53;3.00;;;;;;;14.02;93.02;95033.16;5043147;28;20651;-79
2022/09/26 01:30:04;;;;;;;2.80;2.60;;;;;;;14.05;92.68;95026.75;5036956;28;20221;-79
2022/09/26 01:32:48;;;;;;;3.25;2.95;;;;;;;14.04;92.48;95030.34;5037055;28;20720;-79
2022/09/26 01:35:28;;;;;;;2.88;2.63;;;;;;;14.09;92.59;95030.50;5030845;28;20301;-80
2022/09/26 01:38:05;;;;;;;2.97;2.78;;;;;;;14.10;92.31;95027.69;5038053;28;20612;-80
2022/09/26 01:40:37;;;;;;;3.35;3.05;;;;;;;14.09;92.38;95028.69;5036528;28;20194;-79
2022/09/26 01:43:13;;;;;;;2.63;2.42;;;;;;;14.06;92.24;95023.94;5048996;28;20198;-79
2022/09/26 01:45:48;;;;;;;3.58;3.28;;;;;;;14.03;92.35;95024.38;5049092;28;20225;-79
2022/09/26 01:48:19;;;;;;;2.70;2.50;;;;;;;14.00;92.91;95024.00;5048043;28;20193;-79
2022/09/26 01:50:52;;;;;;;2.97;2.72;;;;;;;13.99;92.37;95025.03;5054119;28;20212;-80
2022/09/26 01:53:24;;;;;;;3.20;2.90;;;;;;;13.98;92.26;95021.63;5045076;28;20500;-79
2022/09/26 01:55:56;;;;;;;3.30;3.00;;;;;;;13.98;91.93;95019.03;5047063;28;20704;-79
2022/09/26 01:58:27;;;;;;;3.33;3.03;;;;;;;13.88;91.60;95016.13;5051026;28;20196;-79
2022/09/26 02:00:58;;;;;;;3.20;2.90;;;;;;;13.88;91.60;95018.72;5048955;28;20194;-80
2022/09/26 02:03:29;;;;;;;3.33;3.03;;;;;;;13.87;91.48;95016.34;5043496;28;20229;-79
2022/09/26 02:06:00;;;;;;;3.33;3.03;;;;;;;13.92;91.25;95011.31;5039799;28;20222;-80
2022/09/26 02:08:33;;;;;;;3.30;3.10;;;;;;;13.91;91.79;95015.72;5050604;28;20193;-80
2022/09/26 02:11:05;;;;;;;3.47;3.17;;;;;;;13.95;91.43;95016.88;5049310;28;20281;-79
2022/09/26 02:13:35;;;;;;;3.35;3.10;;;;;;;13.96;90.94;95009.91;5050653;28;20255;-80
2022/09/26 02:16:06;;;;;;;3.35;3.05;;;;;;;13.89;90.67;95015.13;5048952;28;20251;-79
2022/09/26 02:18:38;;;;;;;3.30;3.10;;;;;;;13.88;91.01;95010.94;5050911;28;20700;-80
2022/09/26 02:21:11;;;;;;;3.67;3.30;;;;;;;13.88;91.25;95010.16;5037912;28;20197;-80
2022/09/26 02:23:38;;;;;;;3.53;3.22;;;;;;;13.93;90.93;95011.13;5036118;28;20289;-79
2022/09/26 02:26:04;;;;;;;3.40;3.10;;;;;;;13.98;91.10;95005.31;5048189;28;20316;-78
2022/09/26 02:28:31;;;;;;;3.78;3.47;;;;;;;13.95;90.67;94998.75;5049801;28;20198;-80
2022/09/26 02:31:00;;;;;;;4.72;3.78;;;;;;;13.93;90.74;95003.34;5036979;28;20293;-78
2022/09/26 02:33:28;;;;;;;3.97;3.58;;;;;;;13.94;90.98;94998.97;5036096;28;20612;-80
2022/09/26 02:35:56;;;;;;;4.00;3.70;;;;;;;13.95;90.68;94997.97;5036634;28;20230;-79
2022/09/26 02:38:25;;;;;;;4.10;3.80;;;;;;;13.94;90.54;94993.78;5035666;28;20278;-79
2022/09/26 02:40:59;;;;;;;4.68;4.28;;;;;;;13.88;90.62;94990.25;5036359;28;20202;-79
2022/09/26 02:43:44;;;;;;;4.00;3.67;;;;;;;13.94;90.87;94992.00;5035883;28;20896;-79
2022/09/26 02:46:28;;;;;;;4.03;3.72;;;;;;;13.89;90.43;95001.38;5048786;28;20320;-79
2022/09/26 02:49:07;;;;;;;4.60;4.20;;;;;;;13.85;90.90;94992.50;5048380;28;20600;-78
2022/09/26 02:51:53;;;;;;;4.20;3.80;;;;;;;13.81;91.07;94992.09;5049806;28;20201;-80
2022/09/26 02:54:26;;;;;;;5.47;4.20;;;;;;;13.83;90.82;94992.69;5029105;28;20196;-80
2022/09/26 02:57:10;;;;;;;4.95;4.05;;;;;;;13.81;91.34;94994.69;5035691;28;20226;-80
2022/09/26 02:59:48;;;;;;;5.22;4.25;;;;;;;13.82;91.43;94993.69;5035505;28;20206;-78
2022/09/26 03:02:17;;;;;;;4.47;4.07;;;;;;;13.79;91.04;94987.13;5028265;28;20240;-79
2022/09/26 03:04:50;;;;;;;4.57;4.18;;;;;;;13.82;90.95;94984.13;5035603;28;20618;-79
2022/09/26 03:07:24;;;;;;;4.72;4.32;;;;;;;13.82;90.78;94989.31;5028703;28;20344;-79
2022/09/26 03:09:52;;;;;;;6.07;4.50;;;;;;;13.79;90.40;94988.94;5035914;28;20795;-79
2022/09/26 03:12:20;;;;;;;4.82;4.43;;;;;;;13.76;90.80;94994.53;5034915;28;20349;-79
2022/09/26 03:14:49;;;;;;;4.95;4.50;;;;;;;13.78;90.83;94992.53;5035607;28;20224;-79
2022/09/26 03:17:18;;;;;;;5.87;4.97;;;;;;;13.71;91.41;94992.56;5027852;28;20279;-79
2022/09/26 03:19:49;;;;;;;5.40;4.90;;;;;;;13.72;91.02;94990.78;5046372;28;20644;-79
2022/09/26 03:22:16;;;;;;;6.00;5.05;;;;;;;13.72;91.26;94986.38;5034694;28;20202;-80
2022/09/26 03:24:44;;;;;;;5.97;5.30;;;;;;;13.77;90.89;94985.75;5034750;28;20194;-79
2022/09/26 03:27:12;;;;;;;5.63;5.05;;;;;;;13.74;90.82;94994.75;5047874;28;20748;-79
2022/09/26 03:29:39;;;;;;;5.77;5.27;;;;;;;13.73;91.08;94989.78;5048848;28;20198;-79
2022/09/26 03:32:05;;;;;;;6.10;5.30;;;;;;;13.73;91.00;94979.41;5035584;28;20247;-80
2022/09/26 03:34:32;;;;;;;6.13;5.53;;;;;;;13.76;91.09;94973.81;5034889;28;20190;-78
2022/09/26 03:37:00;;;;;;;6.43;5.43;;;;;;;13.77;90.91;94981.38;5037482;28;20230;-80
2022/09/26 03:39:26;;;;;;;6.30;5.70;;;;;;;13.78;90.34;94977.00;5030143;28;20252;-80
2022/09/26 03:41:54;;;;;;;6.63;6.03;;;;;;;13.79;90.68;94974.22;5035708;28;20197;-80
2022/09/26 03:44:21;;;;;;;5.97;5.47;;;;;;;13.78;90.85;94972.63;5035286;28;20281;-80
2022/09/26 03:46:47;;;;;;;6.07;5.57;;;;;;;13.77;90.66;94976.22;5039548;28;20316;-80
2022/09/26 03:49:14;;;;;;;7.03;6.43;;;;;;;13.74;90.84;94971.44;5045545;28;20200;-79
2022/09/26 03:51:41;;;;;;;6.87;6.27;;;;;;;13.71;90.87;94968.50;5052019;28;20247;-79
2022/09/26 03:54:11;;;;;;;6.95;6.35;;;;;;;13.73;91.06;94966.47;5034867;28;20668;-79
2022/09/26 03:56:37;;;;;;;6.55;5.95;;;;;;;13.77;91.10;94963.28;5033237;28;20226;-80
2022/09/26 03:59:03;;;;;;;6.80;6.20;;;;;;;13.77;90.87;94965.84;5035679;28;20256;-80
2022/09/26 04:01:30;;;;;;;6.87;6.27;;;;;;;13.83;90.93;94961.66;5034556;28;20199;-79
2022/09/26 04:03:57;;;;;;;7.27;6.53;;;;;;;13.83;90.66;94959.06;5035063;28;20549;-80
2022/09/26 04:06:24;;;;;;;10.23;6.60;;;;;;;13.84;90.51;94952.88;5033168;28;20250;-80
2022/09/26 04:08:52;;;;;;;6.40;5.80;;;;;;;13.87;90.49;94954.22;5034795;28;20256;-80
2022/09/26 04:11:23;;;;;;;7.35;6.75;;;;;;;13.83;90.47;94953.88;5033851;28;20738;-80
2022/09/26 04:13:50;;;;;;;7.10;6.40;;;;;;;13.84;90.58;94947.69;5034160;28;20194;-80
2022/09/26 04:16:18;;;;;;;7.43;6.72;;;;;;;13.81;90.27;94945.53;5033073;28;20690;-79
2022/09/26 04:18:45;;;;;;;8.35;7.55;;;;;;;13.74;90.94;94943.00;5034068;28;20202;-79
2022/09/26 04:21:13;;;;;;;7.73;7.00;;;;;;;13.77;90.88;94941.78;5043722;28;20657;-80
2022/09/26 04:23:40;;;;;;;8.82;8.02;;;;;;;13.78;91.05;94941.56;5033754;28;20277;-80
2022/09/26 04:26:08;;;;;;;7.20;6.60;;;;;;;13.82;91.16;94929.00;5042546;28;20229;-79
2022/09/26 04:28:37;;;;;;;6.97;6.30;;;;;;;13.82;90.90;94939.34;5043927;28;20197;-80
2022/09/26 04:31:05;;;;;;;7.90;7.20;;;;;;;13.81;91.04;94932.59;5051141;28;20208;-80
2022/09/26 04:33:32;;;;;;;7.00;6.30;;;;;;;13.81;91.12;94925.63;5036642;28;20689;-80
2022/09/26 04:36:00;;;;;;;7.55;6.90;;;;;;;13.80;91.69;94920.66;5046150;28;20280;-79
2022/09/26 04:38:32;;;;;;;7.45;5.45;;;;;;;14.00;99.06;94930.84;5050675;28;20641;-78
2022/09/26 04:41:02;;;;;;;6.30;5.10;;;;;;;14.32;97.18;94940.06;5041453;28;20202;-77
2022/09/26 04:43:28;;;;;;;5.95;5.07;;;;;;;14.60;95.64;94933.63;5044214;28;20534;-78
2022/09/26 04:45:56;;;;;;;6.07;5.47;;;;;;;14.82;92.34;94937.34;5048645;28;20287;-79
2022/09/26 04:48:23;;;;;;;5.90;5.15;;;;;;;14.99;91.67;94927.97;5041326;28;20230;-80
2022/09/26 04:50:49;;;;;;;6.78;6.18;;;;;;;14.90;86.06;94928.47;5030831;28;20214;-81
2022/09/26 04:53:18;;;;;;;8.30;6.10;;;;;;;14.67;86.00;94923.97;5028369;28;20206;-80
2022/09/26 04:55:45;;;;;;;6.15;5.55;;;;;;;14.40;86.38;94932.06;5020967;28;20233;-80
2022/09/26 04:58:12;;;;;;;6.43;5.82;;;;;;;14.21;87.78;94930.44;5014854;28;20208;-79
2022/09/26 05:00:44;;;;;;;5.63;5.13;;;;;;;14.09;88.37;94925.16;5028550;28;20210;-80
2022/09/26 05:03:12;;;;;;;6.00;5.50;;;;;;;14.07;89.21;94926.38;5028342;28;20277;-80
2022/09/26 05:05:40;;;;;;;5.78;5.05;;;;;;;14.02;90.10;94923.66;5021157;28;20471;-78
2022/09/26 05:08:06;;;;;;;5.40;4.90;;;;;;;13.97;90.10;94926.88;5028625;28;20238;-80
2022/09/26 05:10:33;;;;;;;5.97;5.32;;;;;;;13.93;90.71;94933.47;5029608;28;20235;-81
2022/09/26 05:12:59;;;;;;;5.32;4.80;;;;;;;13.75;91.03;94928.25;5031852;28;20213;-80
2022/09/26 05:15:26;;;;;;;5.80;5.20;;;;;;;13.71;91.69;94925.31;5031442;28;20702;-81
2022/09/26 05:17:55;;;;;;;5.70;5.20;;;;;;;13.76;92.20;94927.25;5031672;28;20256;-81
2022/09/26 05:20:27;;;;;;;5.80;5.30;;;;;;;13.57;93.28;94925.63;5032071;28;20206;-80
2022/09/26 05:22:56;;;;;;;5.63;5.13;;;;;;;13.63;93.23;94929.97;5032213;28;20634;-80
2022/09/26 05:28:06;;;;;;;6.15;5.55;;;;;;;13.67;94.22;94936.28;5031706;28;20236;-80
2022/09/26 05:30:34;;;;;;;5.97;5.40;;;;;;;13.66;93.75;94932.13;5031967;28;20682;-79
2022/09/26 05:33:01;;;;;;;6.40;5.57;;;;;;;13.61;93.47;94930.16;5032127;28;20213;-80
2022/09/26 05:35:34;;;;;;;5.90;5.40;;;;;;;13.57;93.99;94939.34;5030728;28;20285;-80
2022/09/26 05:38:01;;;;;;;5.70;5.10;;;;;;;13.50;94.11;94930.84;5027250;28;20910;-79
2022/09/26 05:43:23;;;;;;;5.75;5.25;;;;;;;13.57;94.59;94938.56;4969838;28;20331;-80
2022/09/26 05:45:50;;;;;;;6.20;5.30;;;;;;;13.55;94.31;94936.19;5015372;28;20238;-80
2022/09/26 05:48:17;;;;;;;7.65;5.35;;;;;;;13.49;98.14;94939.59;5031119;28;20222;-80
2022/09/26 05:50:44;;;;;;;5.97;5.30;;;;;;;13.50;96.50;94943.75;5030815;28;20288;-80
2022/09/26 05:53:11;;;;;;;5.70;5.10;;;;;;;13.52;95.34;94928.84;5031391;28;20206;-80
2022/09/26 05:55:37;;;;;;;6.38;5.65;;;;;;;13.52;96.76;94939.19;5030291;28;20230;-79
2022/09/26 05:58:04;;;;;;;5.83;5.23;;;;;;;13.58;99.06;94927.22;5031469;28;20677;-82
2022/09/26 06:00:32;;;;;;;8.10;7.30;;;;;;;13.68;95.37;94935.28;5035308;28;20654;-81
2022/09/26 06:03:01;;;;;;;9.70;8.70;;;;;;;13.69;94.40;94934.28;5035928;28;20206;-81
2022/09/26 06:05:28;;;;;;;7.10;6.40;;;;;;;13.65;94.51;94933.94;5015134;28;20258;-80
2022/09/26 06:07:58;;;;;;;6.30;5.70;;;;;;;13.65;94.44;94933.13;5032583;28;20229;-81
2022/09/26 06:10:25;;;;;;;7.30;6.60;;;;;;;13.65;94.51;94936.50;5034450;28;20190;-81
2022/09/26 06:12:51;;;;;;;7.50;6.80;;;;;;;13.67;94.38;94931.09;5034582;28;20817;-81
2022/09/26 06:15:18;;;;;;;7.90;7.20;;;;;;;13.66;94.25;94935.47;5033948;28;20284;-80
2022/09/26 06:17:46;;;;;;;8.03;7.30;;;;;;;13.66;94.03;94938.06;5034770;28;20302;-80
2022/09/26 06:20:12;;;;;;;8.40;7.50;;;;;;;13.69;94.32;94940.25;5033850;28;20206;-81
2022/09/26 06:22:39;;;;;;;8.82;8.02;;;;;;;13.69;94.12;94942.03;5034177;28;20209;-82
2022/09/26 06:25:08;;;;;;;8.97;8.10;;;;;;;13.73;94.36;94938.81;5033935;28;20233;-82
2022/09/26 06:27:37;;;;;;;9.33;8.43;;;;;;;13.70;94.33;94934.06;5034039;28;20268;-80
2022/09/26 06:30:05;;;;;;;9.23;8.33;;;;;;;13.64;95.17;94934.13;5034215;28;20202;-82
2022/09/26 06:32:31;;;;;;;9.50;8.60;;;;;;;13.62;94.58;94938.72;5034310;28;20201;-82
2022/09/26 06:34:58;;;;;;;15.20;13.70;;;;;;;13.63;95.30;94940.31;5033531;28;20210;-81
2022/09/26 06:37:24;;;;;;;14.07;12.33;;;;;;;13.65;94.50;94943.47;5034324;28;20198;-80
2022/09/26 06:39:51;;;;;;;10.10;9.00;;;;;;;13.61;93.36;94940.53;5033682;28;20206;-81
2022/09/26 06:42:18;;;;;;;10.40;9.40;;;;;;;13.64;93.57;94944.47;5033864;28;20693;-82
2022/09/26 06:44:45;;;;;;;10.23;8.87;;;;;;;13.68;93.77;94940.44;5033822;28;20205;-80
2022/09/26 06:47:11;;;;;;;10.03;8.83;;;;;;;13.74;94.22;94934.44;5033479;28;20238;-81
2022/09/26 06:49:38;;;;;;;10.17;9.17;;;;;;;13.79;92.75;94939.78;5033451;28;20240;-81
2022/09/26 06:52:04;;;;;;;10.53;9.47;;;;;;;13.81;92.69;94930.81;5033558;28;20209;-82
2022/09/26 06:54:31;;;;;;;10.30;9.30;;;;;;;13.85;92.86;94930.38;5032746;28;20268;-80
2022/09/26 06:56:57;;;;;;;10.10;9.10;;;;;;;13.86;91.81;94924.97;5032573;28;20237;-80
2022/09/26 06:59:25;;;;;;;9.57;8.67;;;;;;;13.93;92.34;94935.28;5033878;28;20673;-81
2022/09/26 07:01:51;;;;;;;10.37;9.27;;;;;;;13.90;91.33;94933.09;5033709;28;20198;-80
2022/09/26 07:04:18;;;;;;;10.33;9.33;;;;;;;13.91;91.72;94943.25;5033591;28;20205;-82
2022/09/26 07:06:44;;;;;;;9.87;8.87;;;;;;;13.85;91.12;94941.53;5033626;28;20676;-82
2022/09/26 07:09:11;;;;;;;10.25;9.27;;;;;;;13.90;91.78;94940.88;5033923;28;20202;-81
2022/09/26 07:11:37;;;;;;;9.82;8.82;;;;;;;13.90;92.24;94933.91;5032872;28;20666;-82
2022/09/26 07:14:04;;;;;;;10.77;9.67;;;;;;;13.92;91.53;94926.72;5033959;28;20268;-80
2022/09/26 07:16:31;;;;;;;10.40;9.40;;;;;;;13.94;91.35;94921.31;5033526;28;20234;-81
2022/09/26 07:18:58;;;;;;;11.73;9.90;;;;;;;13.92;92.33;94923.34;5033807;28;20626;-79
2022/09/26 07:21:24;;;;;;;10.07;9.17;;;;;;;13.86;90.38;94921.59;5033900;28;20256;-80
2022/09/26 07:23:51;;;;;;;10.40;9.40;;;;;;;13.85;89.96;94920.81;5033352;28;20252;-82
2022/09/26 07:26:17;;;;;;;9.93;9.03;;;;;;;13.89;90.21;94924.53;5033476;28;20302;-81
2022/09/26 07:28:44;;;;;;;10.30;9.33;;;;;;;13.88;91.47;94915.19;5033226;28;20225;-81
2022/09/26 07:31:10;;;;;;;9.60;8.70;;;;;;;13.94;91.59;94916.16;5033224;28;20757;-79
2022/09/26 07:33:39;;;;;;;9.82;8.90;;;;;;;13.94;90.92;94918.75;5033154;28;20202;-81
2022/09/26 07:36:06;;;;;;;12.15;10.95;;;;;;;13.92;90.55;94923.34;5032369;28;20699;-81
2022/09/26 07:38:32;;;;;;;15.20;13.10;;;;;;;13.95;91.30;94920.31;5032897;28;20209;-81
2022/09/26 07:40:59;;;;;;;10.57;9.43;;;;;;;13.99;90.73;94918.91;5033464;28;20280;-82
2022/09/26 07:43:26;;;;;;;10.10;9.18;;;;;;;14.03;90.83;94920.84;5032995;28;20264;-82
2022/09/26 07:51:23;;;;;;;10.25;7.82;;;;;;;13.93;90.26;94917.94;5032652;28;20205;-81
2022/09/26 07:53:49;;;;;;;9.15;8.27;;;;;;;13.92;90.39;94918.16;5032618;28;20248;-80
2022/09/26 07:56:15;;;;;;;9.73;8.20;;;;;;;13.95;91.14;94921.13;5030661;28;20249;-81
2022/09/26 07:58:43;;;;;;;7.43;6.65;;;;;;;14.34;92.57;94921.72;5032462;28;20221;-81
2022/09/26 08:01:11;;;;;;;9.10;8.20;;;;;;;14.72;87.01;94919.72;5033131;28;20194;-81
2022/09/26 08:03:40;;;;;;;8.43;7.50;;;;;;;14.92;85.52;94918.69;5033220;28;20268;-82
2022/09/26 08:06:08;;;;;;;8.73;7.82;;;;;;;14.83;86.18;94923.38;5032116;28;20238;-82
2022/09/26 08:08:35;;;;;;;8.65;7.75;;;;;;;14.71;86.35;94925.13;5032827;28;20257;-81
2022/09/26 08:11:04;;;;;;;7.50;6.85;;;;;;;14.55;84.85;94907.59;5033282;28;20194;-82
2022/09/26 08:13:32;;;;;;;7.78;7.07;;;;;;;14.60;86.09;94913.69;5033478;28;20202;-81
2022/09/26 08:16:02;;;;;;;7.72;7.03;;;;;;;14.55;85.93;94910.97;5031672;28;20238;-81
2022/09/26 08:18:29;;;;;;;7.38;6.68;;;;;;;14.55;87.38;94913.56;5033131;28;20199;-81
2022/09/26 08:20:57;;;;;;;7.18;6.45;;;;;;;14.64;85.34;94911.44;5032698;28;20241;-82
2022/09/26 08:23:23;;;;;;;6.93;6.32;;;;;;;14.64;83.77;94911.44;5033012;28;20209;-82
2022/09/26 08:25:50;;;;;;;6.03;5.53;;;;;;;14.60;82.04;94907.72;5032245;28;20233;-82
2022/09/26 08:28:17;;;;;;;6.35;5.75;;;;;;;14.74;83.35;94909.13;5032948;28;20230;-80
2022/09/26 08:30:44;;;;;;;6.55;5.50;;;;;;;14.89;82.79;94906.16;5032610;28;20289;-82
2022/09/26 08:33:11;;;;;;;6.07;5.47;;;;;;;15.32;80.60;94909.34;5032960;28;20194;-81
2022/09/26 08:35:38;;;;;;;6.57;5.88;;;;;;;15.70;77.89;94896.00;5031298;28;20309;-82
2022/09/26 08:38:07;;;;;;;7.07;5.70;;;;;;;15.83;77.47;94902.78;5032117;28;20236;-82
2022/09/26 08:40:46;;;;;;;5.10;4.70;;;;;;;15.61;77.40;94904.34;5031815;28;20740;-82
2022/09/26 08:43:31;;;;;;;5.85;5.35;;;;;;;15.47;78.58;94898.53;5031841;28;20208;-82
2022/09/26 08:46:34;;;;;;;5.82;5.28;;;;;;;15.24;79.89;94891.50;5030791;28;20234;-81
2022/09/26 08:49:21;;;;;;;5.82;4.95;;;;;;;15.43;80.66;94887.03;5031656;28;20224;-82
2022/09/26 08:51:50;;;;;;;6.30;5.18;;;;;;;15.46;79.58;94884.00;5031135;28;20202;-81
2022/09/26 08:54:20;;;;;;;5.03;4.63;;;;;;;15.37;79.87;94873.16;5030661;28;20569;-82
2022/09/26 08:56:50;;;;;;;5.50;5.00;;;;;;;15.39;80.07;94878.91;5030958;28;20284;-81
2022/09/26 08:59:33;;;;;;;4.88;4.47;;;;;;;15.67;79.06;94875.69;5031846;28;20681;-82
2022/09/26 09:02:05;;;;;;;4.82;4.35;;;;;;;15.91;78.38;94871.28;5031689;28;20832;-82
2022/09/26 09:04:40;;;;;;;7.90;6.78;;;;;;;15.95;76.06;94869.84;5031422;28;20202;-82
2022/09/26 09:07:16;;;;;;;5.13;4.63;;;;;;;16.15;75.27;94866.88;5031229;28;20236;-83
2022/09/26 09:09:44;;;;;;;3.72;3.42;;;;;;;16.28;74.05;94865.81;5031503;28;20233;-81
2022/09/26 09:12:17;;;;;;;4.20;3.80;;;;;;;16.38;74.39;94866.81;5031449;28;20248;-81
2022/09/26 09:14:59;;;;;;;3.95;3.65;;;;;;;16.27;73.68;94861.66;5031911;28;20202;-81
2022/09/26 09:17:36;;;;;;;4.05;3.75;;;;;;;16.37;73.56;94870.41;5031121;28;20222;-82
2022/09/26 09:20:14;;;;;;;3.45;3.15;;;;;;;16.17;71.95;94870.00;5035697;28;20220;-81
2022/09/26 09:22:54;;;;;;;3.03;2.78;;;;;;;15.93;72.60;94866.66;5036377;28;20202;-82
2022/09/26 09:25:28;;;;;;;3.40;3.10;;;;;;;15.74;71.61;94858.22;5031965;28;20234;-82
2022/09/26 09:28:10;;;;;;;3.80;3.40;;;;;;;15.75;72.84;94862.38;5032224;28;20291;-82
2022/09/26 09:30:43;;;;;;;3.70;3.40;;;;;;;15.92;72.34;94859.09;5032137;28;20248;-81
2022/09/26 09:33:14;;;;;;;5.03;3.13;;;;;;;16.10;72.71;94851.19;5032142;28;20297;-82
2022/09/26 09:35:47;;;;;;;3.60;3.30;;;;;;;16.54;73.35;94852.31;5035566;28;20709;-81
2022/09/26 09:38:17;;;;;;;3.03;2.83;;;;;;;16.96;70.55;94847.63;5036079;28;20662;-82
2022/09/26 09:40:52;;;;;;;3.20;2.90;;;;;;;17.14;69.08;94839.63;5035817;28;20210;-82
2022/09/26 09:43:26;;;;;;;2.88;2.58;;;;;;;17.32;70.30;94837.84;5036251;28;20232;-81
2022/09/26 09:45:57;;;;;;;2.88;2.65;;;;;;;17.39;66.72;94846.25;5035331;28;20229;-82
2022/09/26 09:48:26;;;;;;;2.42;2.22;;;;;;;17.36;64.62;94834.50;5035978;28;20226;-83
2022/09/26 09:51:05;;;;;;;3.17;2.28;;;;;;;17.59;63.57;94823.16;5035959;28;20835;-83
2022/09/26 09:53:52;;;;;;;2.30;2.20;;;;;;;17.77;64.48;94833.34;5031800;28;20202;-83
2022/09/26 09:56:32;;;;;;;2.90;2.25;;;;;;;17.99;63.61;94835.97;5014358;28;20257;-82
2022/09/26 09:59:19;;;;;;;2.13;2.03;;;;;;;18.14;62.20;94832.78;5019551;28;20209;-82
2022/09/26 10:01:50;;;;;;;2.20;2.00;;;;;;;18.17;60.34;94827.88;5035642;28;20209;-83
2022/09/26 10:04:29;;;;;;;2.28;2.08;;;;;;;17.88;61.09;94824.66;5035939;28;20198;-83
2022/09/26 10:06:56;;;;;;;2.53;2.20;;;;;;;17.55;61.69;94822.03;5035001;28;20665;-82
2022/09/26 10:09:27;;;;;;;2.63;1.80;;;;;;;17.55;62.07;94822.84;5034763;28;20225;-83
2022/09/26 10:11:56;;;;;;;2.47;2.28;;;;;;;17.52;62.63;94812.88;5034861;28;20206;-82
2022/09/26 10:14:31;;;;;;;2.33;2.13;;;;;;;17.38;64.50;94811.66;5034953;28;20213;-85
2022/09/26 10:17:19;;;;;;;2.13;1.95;;;;;;;17.12;64.81;94815.69;5033887;28;20644;-86
2022/09/26 10:19:46;;;;;;;2.63;2.00;;;;;;;16.91;64.81;94817.16;5033561;28;20209;-81
2022/09/26 10:22:24;;;;;;;2.25;2.05;;;;;;;16.68;64.33;94812.06;5034383;28;20214;-82
2022/09/26 10:24:54;;;;;;;2.75;2.20;;;;;;;16.45;64.13;94812.13;5033945;28;20264;-81
2022/09/26 10:27:34;;;;;;;2.30;2.10;;;;;;;16.30;65.22;94815.22;5034086;28;20823;-82
2022/09/26 10:30:02;;;;;;;2.33;2.00;;;;;;;16.04;65.67;94821.72;5033561;28;20845;-82
2022/09/26 10:32:29;;;;;;;2.15;2.00;;;;;;;15.97;66.58;94822.88;5033537;28;20260;-82
2022/09/26 10:35:06;;;;;;;2.28;2.08;;;;;;;15.87;68.54;94829.41;5033122;28;20202;-82
2022/09/26 10:37:36;;;;;;;2.45;2.25;;;;;;;15.62;71.17;94830.66;5051279;28;20208;-82
2022/09/26 10:43:20;;;;;;;2.55;2.35;;;;;;;15.38;76.90;94825.47;5052461;28;20261;-81
2022/09/26 10:45:48;;;;;;;2.72;2.53;;;;;;;15.41;79.96;94827.56;5052794;28;20240;-82
2022/09/26 10:48:17;;;;;;;3.08;2.85;;;;;;;15.59;79.22;94829.31;5044300;28;20303;-82
2022/09/26 10:50:50;;;;;;;3.15;2.88;;;;;;;15.68;78.41;94825.38;5033109;28;20281;-81
2022/09/26 10:53:18;;;;;;;3.05;2.80;;;;;;;15.73;78.03;94819.50;5033454;28;20641;-81
2022/09/26 10:55:50;;;;;;;2.78;2.58;;;;;;;15.78;78.22;94822.19;5031303;28;20242;-82
2022/09/26 10:58:21;;;;;;;2.90;2.53;;;;;;;15.81;78.79;94816.56;5030426;28;20217;-80
2022/09/26 11:00:49;;;;;;;2.83;2.63;;;;;;;15.87;78.17;94815.66;5032762;28;20260;-80
2022/09/26 11:03:19;;;;;;;3.00;2.80;;;;;;;15.98;77.59;94811.44;5033135;28;20194;-80
2022/09/26 11:05:57;;;;;;;2.90;2.70;;;;;;;15.92;79.84;94804.59;5032540;28;20722;-81
2022/09/26 11:08:27;;;;;;;2.83;2.63;;;;;;;15.90;78.94;94810.00;5033201;28;20218;-81
2022/09/26 11:10:54;;;;;;;2.70;2.50;;;;;;;15.94;78.39;94807.75;5032888;28;20206;-81
2022/09/26 11:13:24;;;;;;;2.72;2.53;;;;;;;15.84;77.50;94808.31;5033461;28;20617;-82
2022/09/26 11:15:59;;;;;;;2.47;2.28;;;;;;;15.85;77.60;94797.69;5033150;28;20293;-82
2022/09/26 11:18:33;;;;;;;3.22;2.80;;;;;;;15.75;77.61;94792.31;5033090;28;20209;-80
2022/09/26 11:21:05;;;;;;;3.10;2.85;;;;;;;15.74;79.14;94789.94;5033282;28;20270;-81
2022/09/26 11:23:38;;;;;;;3.08;2.50;;;;;;;15.78;76.97;94785.84;5034167;28;20259;-80
2022/09/26 11:26:19;;;;;;;2.95;2.75;;;;;;;15.90;78.30;94784.03;5033530;28;20234;-83
2022/09/26 11:28:54;;;;;;;4.53;2.00;;;;;;;16.17;75.03;94786.91;5033756;28;20654;-82
2022/09/26 11:31:26;;;;;;;2.05;1.95;;;;;;;16.28;73.71;94778.28;5033492;28;20205;-80
2022/09/26 11:33:53;;;;;;;1.83;1.73;;;;;;;16.40;72.72;94767.84;5034609;28;20264;-81
2022/09/26 11:36:54;;;;;;;1.70;1.60;;;;;;;16.47;70.70;94764.09;5031982;28;20262;-80
2022/09/26 11:39:41;;;;;;;1.85;1.75;;;;;;;16.50;69.89;94762.84;5021999;28;20205;-82
2022/09/26 11:42:23;;;;;;;1.73;1.63;;;;;;;16.42;68.46;94756.22;5032246;28;20202;-81
2022/09/26 11:45:04;;;;;;;3.45;1.33;;;;;;;16.49;69.56;94751.66;5032266;28;20213;-81
2022/09/26 11:48:06;;;;;;;1.40;1.30;;;;;;;16.34;67.59;94753.22;5040264;28;20332;-81
2022/09/26 11:50:40;;;;;;;1.50;1.40;;;;;;;16.28;67.02;94747.13;5042866;28;20284;-81
2022/09/26 11:53:25;;;;;;;1.60;1.50;;;;;;;16.28;67.76;94743.75;5043799;28;20206;-81
2022/09/26 11:56:05;;;;;;;2.38;1.60;;;;;;;16.22;66.59;94727.25;5041046;28;20242;-81
2022/09/26 11:58:39;;;;;;;1.40;1.30;;;;;;;16.24;66.82;94733.03;5042957;28;20589;-81
2022/09/26 12:01:18;;;;;;;1.58;1.48;;;;;;;16.21;66.95;94734.28;5042849;28;20198;-81
2022/09/26 12:04:10;;;;;;;2.90;1.73;;;;;;;16.23;68.98;94734.81;5041992;28;20229;-80